sensor_id;sensor_type;location;lat;lon;timestamp;P1;durP1;ratioP1;P2;durP2;ratioP2
10293;SDS011;5192;50.328;7.610;2023-10-19T00:02:17;10.87;;;9.47;;
10293;SDS011;5192;50.328;7.610;2023-10-19T00:04:44;11.77;;;10.10;;
10293;SDS011;5192;50.328;7.610;2023-10-19T00:07:12;10.60;;;9.60;;
10293;SDS011;5192;50.328;7.610;2023-10-19T00:09:42;10.27;;;9.20;;
10293;SDS011;5192;50.328;7.610;2023-10-19T00:12:14;13.47;;;9.90;;
10293;SDS011;5192;50.328;7.610;2023-10-19T00:14:48;10.73;;;9.67;;
10293;SDS011;5192;50.328;7.610;2023-10-19T00:17:22;10.33;;;9.33;;
10293;SDS011;5192;50.328;7.610;2023-10-19T00:19:50;9.77;;;8.87;;
10293;SDS011;5192;50.328;7.610;2023-10-19T00:22:35;9.57;;;8.67;;
10293;SDS011;5192;50.328;7.610;2023-10-19T00:25:03;10.37;;;9.27;;
10293;SDS011;5192;50.328;7.610;2023-10-19T00:27:30;9.90;;;8.90;;
10293;SDS011;5192;50.328;7.610;2023-10-19T00:29:58;10.10;;;9.10;;
10293;SDS011;5192;50.328;7.610;2023-10-19T00:32:33;10.13;;;9.13;;
10293;SDS011;5192;50.328;7.610;2023-10-19T00:35:06;9.83;;;8.90;;
10293;SDS011;5192;50.328;7.610;2023-10-19T00:37:53;10.83;;;9.07;;
10293;SDS011;5192;50.328;7.610;2023-10-19T00:40:24;9.90;;;8.90;;
10293;SDS011;5192;50.328;7.610;2023-10-19T00:43:25;9.50;;;8.60;;
10293;SDS011;5192;50.328;7.610;2023-10-19T00:46:02;9.50;;;8.50;;
10293;SDS011;5192;50.328;7.610;2023-10-19T00:48:36;9.77;;;8.80;;
10293;SDS011;5192;50.328;7.610;2023-10-19T00:51:06;9.37;;;8.47;;
10293;SDS011;5192;50.328;7.610;2023-10-19T00:53:49;9.73;;;8.37;;
10293;SDS011;5192;50.328;7.610;2023-10-19T00:56:16;10.03;;;9.03;;
10293;SDS011;5192;50.328;7.610;2023-10-19T00:58:45;10.87;;;9.77;;
10293;SDS011;5192;50.328;7.610;2023-10-19T01:01:23;10.20;;;9.17;;
10293;SDS011;5192;50.328;7.610;2023-10-19T01:03:55;10.47;;;9.03;;
10293;SDS011;5192;50.328;7.610;2023-10-19T01:06:25;10.10;;;9.03;;
10293;SDS011;5192;50.328;7.610;2023-10-19T01:08:57;10.77;;;9.07;;
10293;SDS011;5192;50.328;7.610;2023-10-19T01:11:23;10.30;;;9.20;;
10293;SDS011;5192;50.328;7.610;2023-10-19T01:13:55;11.03;;;9.30;;
10293;SDS011;5192;50.328;7.610;2023-10-19T01:16:23;10.90;;;9.70;;
10293;SDS011;5192;50.328;7.610;2023-10-19T01:18:53;11.13;;;9.13;;
10293;SDS011;5192;50.328;7.610;2023-10-19T01:21:24;10.93;;;9.60;;
10293;SDS011;5192;50.328;7.610;2023-10-19T01:23:55;9.93;;;8.90;;
10293;SDS011;5192;50.328;7.610;2023-10-19T01:26:22;11.97;;;10.27;;
10293;SDS011;5192;50.328;7.610;2023-10-19T01:28:55;10.37;;;9.37;;
10293;SDS011;5192;50.328;7.610;2023-10-19T01:31:40;11.13;;;10.03;;
10293;SDS011;5192;50.328;7.610;2023-10-19T01:34:18;11.70;;;9.87;;
10293;SDS011;5192;50.328;7.610;2023-10-19T01:36:46;10.30;;;9.27;;
10293;SDS011;5192;50.328;7.610;2023-10-19T01:39:15;10.40;;;9.37;;
10293;SDS011;5192;50.328;7.610;2023-10-19T01:41:46;11.03;;;9.77;;
10293;SDS011;5192;50.328;7.610;2023-10-19T01:44:11;11.00;;;9.70;;
10293;SDS011;5192;50.328;7.610;2023-10-19T01:46:41;11.07;;;9.80;;
10293;SDS011;5192;50.328;7.610;2023-10-19T01:49:13;12.90;;;9.50;;
10293;SDS011;5192;50.328;7.610;2023-10-19T01:51:58;11.27;;;10.10;;
10293;SDS011;5192;50.328;7.610;2023-10-19T01:54:27;13.27;;;10.97;;
10293;SDS011;5192;50.328;7.610;2023-10-19T01:56:55;11.37;;;10.27;;
10293;SDS011;5192;50.328;7.610;2023-10-19T01:59:26;13.47;;;11.33;;
10293;SDS011;5192;50.328;7.610;2023-10-19T02:01:54;12.13;;;10.80;;
10293;SDS011;5192;50.328;7.610;2023-10-19T02:04:21;12.27;;;11.07;;
10293;SDS011;5192;50.328;7.610;2023-10-19T02:06:47;12.67;;;11.37;;
10293;SDS011;5192;50.328;7.610;2023-10-19T02:09:18;14.37;;;10.93;;
10293;SDS011;5192;50.328;7.610;2023-10-19T02:12:12;14.27;;;10.47;;
10293;SDS011;5192;50.328;7.610;2023-10-19T02:14:40;12.33;;;10.67;;
10293;SDS011;5192;50.328;7.610;2023-10-19T02:17:10;12.57;;;10.13;;
10293;SDS011;5192;50.328;7.610;2023-10-19T02:19:43;12.20;;;10.80;;
10293;SDS011;5192;50.328;7.610;2023-10-19T02:22:11;13.57;;;10.90;;
10293;SDS011;5192;50.328;7.610;2023-10-19T02:24:38;12.73;;;10.90;;
10293;SDS011;5192;50.328;7.610;2023-10-19T02:27:05;14.33;;;10.80;;
10293;SDS011;5192;50.328;7.610;2023-10-19T02:29:32;12.03;;;10.60;;
10293;SDS011;5192;50.328;7.610;2023-10-19T02:32:00;12.50;;;10.30;;
10293;SDS011;5192;50.328;7.610;2023-10-19T02:34:31;12.17;;;10.60;;
10293;SDS011;5192;50.328;7.610;2023-10-19T02:37:01;11.57;;;10.37;;
10293;SDS011;5192;50.328;7.610;2023-10-19T02:39:28;12.57;;;10.27;;
10293;SDS011;5192;50.328;7.610;2023-10-19T02:41:55;11.80;;;10.60;;
10293;SDS011;5192;50.328;7.610;2023-10-19T02:44:26;12.43;;;11.13;;
10293;SDS011;5192;50.328;7.610;2023-10-19T02:46:57;13.20;;;11.00;;
10293;SDS011;5192;50.328;7.610;2023-10-19T02:49:24;12.47;;;11.13;;
10293;SDS011;5192;50.328;7.610;2023-10-19T02:51:52;11.83;;;10.57;;
10293;SDS011;5192;50.328;7.610;2023-10-19T02:54:22;13.23;;;11.30;;
10293;SDS011;5192;50.328;7.610;2023-10-19T02:56:54;12.07;;;10.27;;
10293;SDS011;5192;50.328;7.610;2023-10-19T02:59:25;12.53;;;11.23;;
10293;SDS011;5192;50.328;7.610;2023-10-19T03:01:57;13.47;;;11.83;;
10293;SDS011;5192;50.328;7.610;2023-10-19T03:04:40;13.27;;;10.73;;
10293;SDS011;5192;50.328;7.610;2023-10-19T03:07:10;14.63;;;10.73;;
10293;SDS011;5192;50.328;7.610;2023-10-19T03:09:40;12.83;;;11.23;;
10293;SDS011;5192;50.328;7.610;2023-10-19T03:12:20;14.33;;;11.80;;
10293;SDS011;5192;50.328;7.610;2023-10-19T03:14:51;13.30;;;11.90;;
10293;SDS011;5192;50.328;7.610;2023-10-19T03:17:19;13.63;;;11.67;;
10293;SDS011;5192;50.328;7.610;2023-10-19T03:19:52;14.33;;;11.93;;
10293;SDS011;5192;50.328;7.610;2023-10-19T03:22:19;13.73;;;12.03;;
10293;SDS011;5192;50.328;7.610;2023-10-19T03:24:46;13.70;;;11.73;;
10293;SDS011;5192;50.328;7.610;2023-10-19T03:27:25;14.07;;;11.63;;
10293;SDS011;5192;50.328;7.610;2023-10-19T03:29:52;12.87;;;11.43;;
10293;SDS011;5192;50.328;7.610;2023-10-19T03:32:24;14.23;;;12.03;;
10293;SDS011;5192;50.328;7.610;2023-10-19T03:34:58;14.37;;;12.77;;
10293;SDS011;5192;50.328;7.610;2023-10-19T03:37:27;14.83;;;12.30;;
10293;SDS011;5192;50.328;7.610;2023-10-19T03:39:58;12.93;;;10.80;;
10293;SDS011;5192;50.328;7.610;2023-10-19T03:42:25;12.70;;;10.97;;
10293;SDS011;5192;50.328;7.610;2023-10-19T03:44:52;12.93;;;11.47;;
10293;SDS011;5192;50.328;7.610;2023-10-19T03:47:18;15.17;;;12.20;;
10293;SDS011;5192;50.328;7.610;2023-10-19T03:49:52;14.37;;;12.20;;
10293;SDS011;5192;50.328;7.610;2023-10-19T03:52:19;16.50;;;12.73;;
10293;SDS011;5192;50.328;7.610;2023-10-19T03:54:48;13.53;;;12.00;;
10293;SDS011;5192;50.328;7.610;2023-10-19T03:57:16;14.67;;;12.40;;
10293;SDS011;5192;50.328;7.610;2023-10-19T03:59:56;14.63;;;11.73;;
10293;SDS011;5192;50.328;7.610;2023-10-19T04:02:24;15.80;;;12.60;;
10293;SDS011;5192;50.328;7.610;2023-10-19T04:04:50;14.33;;;12.30;;
10293;SDS011;5192;50.328;7.610;2023-10-19T04:07:18;16.27;;;12.73;;
10293;SDS011;5192;50.328;7.610;2023-10-19T04:09:54;15.00;;;13.40;;
10293;SDS011;5192;50.328;7.610;2023-10-19T04:12:37;15.90;;;13.73;;
10293;SDS011;5192;50.328;7.610;2023-10-19T04:15:07;16.43;;;12.87;;
10293;SDS011;5192;50.328;7.610;2023-10-19T04:17:46;15.77;;;12.90;;
10293;SDS011;5192;50.328;7.610;2023-10-19T04:20:19;14.00;;;12.50;;
10293;SDS011;5192;50.328;7.610;2023-10-19T04:22:49;13.63;;;11.73;;
10293;SDS011;5192;50.328;7.610;2023-10-19T04:25:17;17.13;;;14.20;;
10293;SDS011;5192;50.328;7.610;2023-10-19T04:28:02;15.80;;;12.87;;
10293;SDS011;5192;50.328;7.610;2023-10-19T04:30:31;14.50;;;11.70;;
10293;SDS011;5192;50.328;7.610;2023-10-19T04:32:58;15.93;;;12.77;;
10293;SDS011;5192;50.328;7.610;2023-10-19T04:35:37;15.37;;;13.50;;
10293;SDS011;5192;50.328;7.610;2023-10-19T04:38:07;17.80;;;13.27;;
10293;SDS011;5192;50.328;7.610;2023-10-19T04:40:35;15.73;;;13.57;;
10293;SDS011;5192;50.328;7.610;2023-10-19T04:43:04;18.13;;;13.97;;
10293;SDS011;5192;50.328;7.610;2023-10-19T04:45:31;15.40;;;13.70;;
10293;SDS011;5192;50.328;7.610;2023-10-19T04:48:00;18.63;;;14.60;;
10293;SDS011;5192;50.328;7.610;2023-10-19T04:50:30;22.17;;;16.07;;
10293;SDS011;5192;50.328;7.610;2023-10-19T04:52:57;19.40;;;16.37;;
10293;SDS011;5192;50.328;7.610;2023-10-19T04:55:22;19.33;;;15.67;;
10293;SDS011;5192;50.328;7.610;2023-10-19T04:57:50;17.90;;;15.50;;
10293;SDS011;5192;50.328;7.610;2023-10-19T05:00:17;20.07;;;15.60;;
10293;SDS011;5192;50.328;7.610;2023-10-19T05:02:47;19.83;;;15.20;;
10293;SDS011;5192;50.328;7.610;2023-10-19T05:05:13;19.83;;;15.40;;
10293;SDS011;5192;50.328;7.610;2023-10-19T05:07:43;18.43;;;15.50;;
10293;SDS011;5192;50.328;7.610;2023-10-19T05:10:11;16.57;;;13.50;;
10293;SDS011;5192;50.328;7.610;2023-10-19T05:12:38;17.87;;;15.10;;
10293;SDS011;5192;50.328;7.610;2023-10-19T05:15:04;21.23;;;16.23;;
10293;SDS011;5192;50.328;7.610;2023-10-19T05:17:32;19.30;;;15.37;;
10293;SDS011;5192;50.328;7.610;2023-10-19T05:20:00;19.07;;;14.43;;
10293;SDS011;5192;50.328;7.610;2023-10-19T05:22:26;19.27;;;15.43;;
10293;SDS011;5192;50.328;7.610;2023-10-19T05:24:58;17.73;;;14.53;;
10293;SDS011;5192;50.328;7.610;2023-10-19T05:27:27;18.50;;;14.77;;
10293;SDS011;5192;50.328;7.610;2023-10-19T05:29:54;16.87;;;14.87;;
10293;SDS011;5192;50.328;7.610;2023-10-19T05:32:20;17.13;;;14.47;;
10293;SDS011;5192;50.328;7.610;2023-10-19T05:34:47;18.97;;;14.17;;
10293;SDS011;5192;50.328;7.610;2023-10-19T05:37:15;16.07;;;12.73;;
10293;SDS011;5192;50.328;7.610;2023-10-19T05:39:43;17.47;;;14.37;;
10293;SDS011;5192;50.328;7.610;2023-10-19T05:42:11;17.33;;;14.33;;
10293;SDS011;5192;50.328;7.610;2023-10-19T05:44:37;19.23;;;15.37;;
10293;SDS011;5192;50.328;7.610;2023-10-19T05:47:04;18.90;;;15.47;;
10293;SDS011;5192;50.328;7.610;2023-10-19T05:49:33;18.30;;;14.90;;
10293;SDS011;5192;50.328;7.610;2023-10-19T05:52:01;18.33;;;14.70;;
10293;SDS011;5192;50.328;7.610;2023-10-19T05:54:29;16.13;;;13.33;;
10293;SDS011;5192;50.328;7.610;2023-10-19T05:56:57;16.17;;;13.13;;
10293;SDS011;5192;50.328;7.610;2023-10-19T05:59:24;16.10;;;13.87;;
10293;SDS011;5192;50.328;7.610;2023-10-19T06:01:52;16.83;;;13.80;;
10293;SDS011;5192;50.328;7.610;2023-10-19T06:04:18;16.97;;;14.53;;
10293;SDS011;5192;50.328;7.610;2023-10-19T06:06:46;18.57;;;15.17;;
10293;SDS011;5192;50.328;7.610;2023-10-19T06:09:14;17.40;;;14.20;;
10293;SDS011;5192;50.328;7.610;2023-10-19T06:11:44;16.80;;;14.47;;
10293;SDS011;5192;50.328;7.610;2023-10-19T06:14:10;19.70;;;15.33;;
10293;SDS011;5192;50.328;7.610;2023-10-19T06:16:36;20.50;;;15.90;;
10293;SDS011;5192;50.328;7.610;2023-10-19T06:19:03;16.77;;;13.00;;
10293;SDS011;5192;50.328;7.610;2023-10-19T06:21:31;17.97;;;14.03;;
10293;SDS011;5192;50.328;7.610;2023-10-19T06:23:59;17.37;;;13.80;;
10293;SDS011;5192;50.328;7.610;2023-10-19T06:26:24;19.50;;;14.77;;
10293;SDS011;5192;50.328;7.610;2023-10-19T06:28:51;20.03;;;15.77;;
10293;SDS011;5192;50.328;7.610;2023-10-19T06:31:25;20.20;;;14.60;;
10293;SDS011;5192;50.328;7.610;2023-10-19T06:33:52;17.60;;;13.27;;
10293;SDS011;5192;50.328;7.610;2023-10-19T06:36:19;17.17;;;12.90;;
10293;SDS011;5192;50.328;7.610;2023-10-19T06:38:48;17.83;;;13.50;;
10293;SDS011;5192;50.328;7.610;2023-10-19T06:41:17;17.63;;;12.87;;
10293;SDS011;5192;50.328;7.610;2023-10-19T06:43:44;16.90;;;13.53;;
10293;SDS011;5192;50.328;7.610;2023-10-19T06:46:11;17.30;;;14.33;;
10293;SDS011;5192;50.328;7.610;2023-10-19T06:48:40;15.13;;;13.33;;
10293;SDS011;5192;50.328;7.610;2023-10-19T06:51:07;16.77;;;14.30;;
10293;SDS011;5192;50.328;7.610;2023-10-19T06:53:34;18.57;;;14.87;;
10293;SDS011;5192;50.328;7.610;2023-10-19T06:56:00;15.80;;;13.40;;
10293;SDS011;5192;50.328;7.610;2023-10-19T06:58:27;19.50;;;13.37;;
10293;SDS011;5192;50.328;7.610;2023-10-19T07:00:53;15.93;;;14.20;;
10293;SDS011;5192;50.328;7.610;2023-10-19T07:03:22;16.80;;;14.03;;
10293;SDS011;5192;50.328;7.610;2023-10-19T07:05:53;18.70;;;14.30;;
10293;SDS011;5192;50.328;7.610;2023-10-19T07:08:19;17.83;;;14.20;;
10293;SDS011;5192;50.328;7.610;2023-10-19T07:10:47;15.40;;;13.37;;
10293;SDS011;5192;50.328;7.610;2023-10-19T07:13:20;19.17;;;14.97;;
10293;SDS011;5192;50.328;7.610;2023-10-19T07:15:50;15.87;;;12.70;;
10293;SDS011;5192;50.328;7.610;2023-10-19T07:18:19;18.17;;;14.60;;
10293;SDS011;5192;50.328;7.610;2023-10-19T07:20:47;16.60;;;12.73;;
10293;SDS011;5192;50.328;7.610;2023-10-19T07:23:14;16.40;;;13.13;;
10293;SDS011;5192;50.328;7.610;2023-10-19T07:25:52;13.10;;;11.67;;
10293;SDS011;5192;50.328;7.610;2023-10-19T07:28:22;15.57;;;13.03;;
10293;SDS011;5192;50.328;7.610;2023-10-19T07:30:54;17.10;;;14.10;;
10293;SDS011;5192;50.328;7.610;2023-10-19T07:33:23;18.40;;;13.50;;
10293;SDS011;5192;50.328;7.610;2023-10-19T07:35:49;16.77;;;13.90;;
10293;SDS011;5192;50.328;7.610;2023-10-19T07:38:26;15.40;;;12.90;;
10293;SDS011;5192;50.328;7.610;2023-10-19T07:40:58;15.97;;;14.00;;
10293;SDS011;5192;50.328;7.610;2023-10-19T07:43:25;15.50;;;13.20;;
10293;SDS011;5192;50.328;7.610;2023-10-19T07:45:50;15.83;;;14.10;;
10293;SDS011;5192;50.328;7.610;2023-10-19T07:48:18;15.77;;;12.50;;
10293;SDS011;5192;50.328;7.610;2023-10-19T07:50:45;15.60;;;11.57;;
10293;SDS011;5192;50.328;7.610;2023-10-19T07:53:13;18.17;;;12.40;;
10293;SDS011;5192;50.328;7.610;2023-10-19T07:55:39;15.40;;;12.43;;
10293;SDS011;5192;50.328;7.610;2023-10-19T07:58:07;14.87;;;11.87;;
10293;SDS011;5192;50.328;7.610;2023-10-19T08:00:34;16.50;;;12.60;;
10293;SDS011;5192;50.328;7.610;2023-10-19T08:03:00;14.07;;;12.23;;
10293;SDS011;5192;50.328;7.610;2023-10-19T08:05:31;13.33;;;11.97;;
10293;SDS011;5192;50.328;7.610;2023-10-19T08:07:59;17.07;;;10.83;;
10293;SDS011;5192;50.328;7.610;2023-10-19T08:10:25;12.47;;;10.23;;
10293;SDS011;5192;50.328;7.610;2023-10-19T08:12:53;11.20;;;9.80;;
10293;SDS011;5192;50.328;7.610;2023-10-19T08:15:20;11.17;;;9.53;;
10293;SDS011;5192;50.328;7.610;2023-10-19T08:17:49;13.40;;;9.17;;
10293;SDS011;5192;50.328;7.610;2023-10-19T08:20:20;11.33;;;9.13;;
10293;SDS011;5192;50.328;7.610;2023-10-19T08:22:57;9.63;;;8.63;;
10293;SDS011;5192;50.328;7.610;2023-10-19T08:25:27;10.90;;;9.10;;
10293;SDS011;5192;50.328;7.610;2023-10-19T08:27:56;11.47;;;8.43;;
10293;SDS011;5192;50.328;7.610;2023-10-19T08:30:24;7.50;;;6.40;;
10293;SDS011;5192;50.328;7.610;2023-10-19T08:32:54;8.83;;;7.57;;
10293;SDS011;5192;50.328;7.610;2023-10-19T08:35:22;8.53;;;5.40;;
10293;SDS011;5192;50.328;7.610;2023-10-19T08:37:54;9.90;;;8.20;;
10293;SDS011;5192;50.328;7.610;2023-10-19T08:40:22;7.77;;;6.97;;
10293;SDS011;5192;50.328;7.610;2023-10-19T08:42:54;9.60;;;5.97;;
10293;SDS011;5192;50.328;7.610;2023-10-19T08:45:20;7.17;;;5.97;;
10293;SDS011;5192;50.328;7.610;2023-10-19T08:47:48;8.87;;;5.83;;
10293;SDS011;5192;50.328;7.610;2023-10-19T08:50:25;6.40;;;4.70;;
10293;SDS011;5192;50.328;7.610;2023-10-19T08:52:53;8.20;;;4.03;;
10293;SDS011;5192;50.328;7.610;2023-10-19T08:55:22;7.63;;;5.33;;
10293;SDS011;5192;50.328;7.610;2023-10-19T08:57:53;7.30;;;5.83;;
10293;SDS011;5192;50.328;7.610;2023-10-19T09:00:27;6.60;;;4.43;;
10293;SDS011;5192;50.328;7.610;2023-10-19T09:02:57;8.90;;;4.87;;
10293;SDS011;5192;50.328;7.610;2023-10-19T09:05:25;6.87;;;5.10;;
10293;SDS011;5192;50.328;7.610;2023-10-19T09:07:54;6.37;;;5.77;;
10293;SDS011;5192;50.328;7.610;2023-10-19T09:13:07;9.90;;;7.40;;
10293;SDS011;5192;50.328;7.610;2023-10-19T09:15:38;11.87;;;8.40;;
10293;SDS011;5192;50.328;7.610;2023-10-19T09:18:19;8.83;;;7.90;;
10293;SDS011;5192;50.328;7.610;2023-10-19T09:20:51;8.37;;;7.57;;
10293;SDS011;5192;50.328;7.610;2023-10-19T09:23:22;9.30;;;7.97;;
10293;SDS011;5192;50.328;7.610;2023-10-19T09:25:52;10.40;;;7.60;;
10293;SDS011;5192;50.328;7.610;2023-10-19T09:28:18;7.13;;;6.43;;
10293;SDS011;5192;50.328;7.610;2023-10-19T09:30:46;8.17;;;6.53;;
10293;SDS011;5192;50.328;7.610;2023-10-19T09:33:12;7.73;;;6.77;;
10293;SDS011;5192;50.328;7.610;2023-10-19T09:35:47;7.67;;;6.87;;
10293;SDS011;5192;50.328;7.610;2023-10-19T09:38:27;8.77;;;6.53;;
10293;SDS011;5192;50.328;7.610;2023-10-19T09:40:55;8.93;;;6.47;;
10293;SDS011;5192;50.328;7.610;2023-10-19T09:43:50;7.07;;;5.50;;
10293;SDS011;5192;50.328;7.610;2023-10-19T09:46:37;6.90;;;5.57;;
10293;SDS011;5192;50.328;7.610;2023-10-19T09:49:20;8.53;;;5.37;;
10293;SDS011;5192;50.328;7.610;2023-10-19T09:51:47;6.87;;;5.47;;
10293;SDS011;5192;50.328;7.610;2023-10-19T09:54:17;7.00;;;4.67;;
10293;SDS011;5192;50.328;7.610;2023-10-19T09:57:01;8.67;;;4.10;;
10293;SDS011;5192;50.328;7.610;2023-10-19T09:59:43;5.80;;;4.20;;
10293;SDS011;5192;50.328;7.610;2023-10-19T10:02:18;6.20;;;5.60;;
10293;SDS011;5192;50.328;7.610;2023-10-19T10:04:47;7.97;;;6.30;;
10293;SDS011;5192;50.328;7.610;2023-10-19T10:07:15;8.77;;;5.88;;
10293;SDS011;5192;50.328;7.610;2023-10-19T10:09:43;8.27;;;5.90;;
10293;SDS011;5192;50.328;7.610;2023-10-19T10:17:45;6.65;;;5.85;;
10293;SDS011;5192;50.328;7.610;2023-10-19T10:23:24;9.40;;;6.28;;
10293;SDS011;5192;50.328;7.610;2023-10-19T10:25:46;6.00;;;4.85;;
10293;SDS011;5192;50.328;7.610;2023-10-19T10:28:20;7.15;;;5.10;;
10293;SDS011;5192;50.328;7.610;2023-10-19T10:33:43;9.02;;;6.55;;
10293;SDS011;5192;50.328;7.610;2023-10-19T10:36:30;9.65;;;6.80;;
10293;SDS011;5192;50.328;7.610;2023-10-19T10:39:39;7.37;;;6.20;;
10293;SDS011;5192;50.328;7.610;2023-10-19T10:42:09;7.23;;;6.47;;
10293;SDS011;5192;50.328;7.610;2023-10-19T10:44:36;7.07;;;6.32;;
10293;SDS011;5192;50.328;7.610;2023-10-19T10:47:20;7.95;;;6.80;;
10293;SDS011;5192;50.328;7.610;2023-10-19T10:52:36;8.13;;;7.33;;
10293;SDS011;5192;50.328;7.610;2023-10-19T10:55:07;10.00;;;7.30;;
10293;SDS011;5192;50.328;7.610;2023-10-19T10:57:38;8.60;;;7.43;;
10293;SDS011;5192;50.328;7.610;2023-10-19T11:00:09;9.97;;;7.40;;
10293;SDS011;5192;50.328;7.610;2023-10-19T11:02:45;8.50;;;7.00;;
10293;SDS011;5192;50.328;7.610;2023-10-19T11:05:13;8.47;;;7.43;;
10293;SDS011;5192;50.328;7.610;2023-10-19T11:08:05;10.23;;;7.60;;
10293;SDS011;5192;50.328;7.610;2023-10-19T11:10:47;9.30;;;6.83;;
10293;SDS011;5192;50.328;7.610;2023-10-19T11:13:18;10.77;;;6.57;;
10293;SDS011;5192;50.328;7.610;2023-10-19T11:15:52;8.20;;;6.10;;
10293;SDS011;5192;50.328;7.610;2023-10-19T11:18:38;8.10;;;6.00;;
10293;SDS011;5192;50.328;7.610;2023-10-19T11:21:12;7.75;;;5.90;;
10293;SDS011;5192;50.328;7.610;2023-10-19T11:23:48;7.63;;;6.23;;
10293;SDS011;5192;50.328;7.610;2023-10-19T11:26:20;8.77;;;5.83;;
10293;SDS011;5192;50.328;7.610;2023-10-19T11:28:56;7.28;;;5.60;;
10293;SDS011;5192;50.328;7.610;2023-10-19T11:31:27;7.70;;;5.57;;
10293;SDS011;5192;50.328;7.610;2023-10-19T11:34:03;6.10;;;4.78;;
10293;SDS011;5192;50.328;7.610;2023-10-19T11:36:29;7.63;;;5.30;;
10293;SDS011;5192;50.328;7.610;2023-10-19T11:38:59;6.30;;;4.80;;
10293;SDS011;5192;50.328;7.610;2023-10-19T11:41:24;5.30;;;4.80;;
10293;SDS011;5192;50.328;7.610;2023-10-19T11:43:53;7.00;;;4.80;;
10293;SDS011;5192;50.328;7.610;2023-10-19T11:46:20;9.88;;;5.63;;
10293;SDS011;5192;50.328;7.610;2023-10-19T11:48:51;5.53;;;4.75;;
10293;SDS011;5192;50.328;7.610;2023-10-19T11:51:20;7.00;;;4.85;;
10293;SDS011;5192;50.328;7.610;2023-10-19T11:53:47;7.15;;;5.00;;
10293;SDS011;5192;50.328;7.610;2023-10-19T11:56:15;5.78;;;4.32;;
10293;SDS011;5192;50.328;7.610;2023-10-19T11:58:42;7.43;;;4.72;;
10293;SDS011;5192;50.328;7.610;2023-10-19T12:01:13;8.57;;;5.28;;
10293;SDS011;5192;50.328;7.610;2023-10-19T12:03:43;5.78;;;4.43;;
10293;SDS011;5192;50.328;7.610;2023-10-19T12:06:12;5.38;;;4.80;;
10293;SDS011;5192;50.328;7.610;2023-10-19T12:08:44;7.18;;;4.80;;
10293;SDS011;5192;50.328;7.610;2023-10-19T12:11:13;6.13;;;4.85;;
10293;SDS011;5192;50.328;7.610;2023-10-19T12:13:45;6.60;;;4.97;;
10293;SDS011;5192;50.328;7.610;2023-10-19T12:16:13;5.30;;;4.68;;
10293;SDS011;5192;50.328;7.610;2023-10-19T12:18:46;5.60;;;4.73;;
10293;SDS011;5192;50.328;7.610;2023-10-19T12:21:14;5.17;;;4.33;;
10293;SDS011;5192;50.328;7.610;2023-10-19T12:23:42;5.97;;;4.30;;
10293;SDS011;5192;50.328;7.610;2023-10-19T12:26:21;7.75;;;4.75;;
10293;SDS011;5192;50.328;7.610;2023-10-19T12:28:49;5.18;;;4.43;;
10293;SDS011;5192;50.328;7.610;2023-10-19T12:31:16;5.78;;;4.50;;
10293;SDS011;5192;50.328;7.610;2023-10-19T12:33:45;6.95;;;4.65;;
10293;SDS011;5192;50.328;7.610;2023-10-19T12:36:11;6.07;;;4.40;;
10293;SDS011;5192;50.328;7.610;2023-10-19T12:38:53;5.15;;;4.65;;
10293;SDS011;5192;50.328;7.610;2023-10-19T12:41:21;7.30;;;4.43;;
10293;SDS011;5192;50.328;7.610;2023-10-19T12:43:48;7.83;;;4.40;;
10293;SDS011;5192;50.328;7.610;2023-10-19T12:46:19;5.40;;;4.47;;
10293;SDS011;5192;50.328;7.610;2023-10-19T12:48:45;5.47;;;4.47;;
10293;SDS011;5192;50.328;7.610;2023-10-19T12:51:16;4.57;;;4.13;;
10293;SDS011;5192;50.328;7.610;2023-10-19T12:53:52;4.90;;;4.50;;
10293;SDS011;5192;50.328;7.610;2023-10-19T12:56:22;6.83;;;4.90;;
10293;SDS011;5192;50.328;7.610;2023-10-19T12:58:50;4.97;;;4.47;;
10293;SDS011;5192;50.328;7.610;2023-10-19T13:01:17;6.78;;;4.13;;
10293;SDS011;5192;50.328;7.610;2023-10-19T13:03:45;4.30;;;3.85;;
10293;SDS011;5192;50.328;7.610;2023-10-19T13:06:17;5.32;;;4.40;;
10293;SDS011;5192;50.328;7.610;2023-10-19T13:08:46;5.88;;;4.30;;
10293;SDS011;5192;50.328;7.610;2023-10-19T13:11:13;6.80;;;4.20;;
10293;SDS011;5192;50.328;7.610;2023-10-19T13:13:39;4.95;;;4.07;;
10293;SDS011;5192;50.328;7.610;2023-10-19T13:16:06;4.45;;;3.95;;
10293;SDS011;5192;50.328;7.610;2023-10-19T13:18:34;5.22;;;4.25;;
10293;SDS011;5192;50.328;7.610;2023-10-19T13:21:02;5.22;;;4.15;;
10293;SDS011;5192;50.328;7.610;2023-10-19T13:23:52;6.72;;;3.90;;
10293;SDS011;5192;50.328;7.610;2023-10-19T13:26:20;4.97;;;4.00;;
10293;SDS011;5192;50.328;7.610;2023-10-19T13:28:50;5.95;;;3.88;;
10293;SDS011;5192;50.328;7.610;2023-10-19T13:31:19;6.97;;;4.63;;
10293;SDS011;5192;50.328;7.610;2023-10-19T13:33:47;5.72;;;5.10;;
10293;SDS011;5192;50.328;7.610;2023-10-19T13:36:14;8.02;;;5.85;;
10293;SDS011;5192;50.328;7.610;2023-10-19T13:38:41;6.45;;;5.80;;
10293;SDS011;5192;50.328;7.610;2023-10-19T13:41:09;6.73;;;5.30;;
10293;SDS011;5192;50.328;7.610;2023-10-19T13:43:41;7.37;;;5.70;;
10293;SDS011;5192;50.328;7.610;2023-10-19T13:46:11;5.88;;;5.28;;
10293;SDS011;5192;50.328;7.610;2023-10-19T13:48:37;7.65;;;5.30;;
10293;SDS011;5192;50.328;7.610;2023-10-19T13:51:05;6.07;;;5.18;;
10293;SDS011;5192;50.328;7.610;2023-10-19T13:53:41;5.68;;;5.00;;
10293;SDS011;5192;50.328;7.610;2023-10-19T13:56:11;5.17;;;4.67;;
10293;SDS011;5192;50.328;7.610;2023-10-19T13:58:38;7.72;;;4.75;;
10293;SDS011;5192;50.328;7.610;2023-10-19T14:01:09;8.80;;;5.60;;
10293;SDS011;5192;50.328;7.610;2023-10-19T14:03:37;5.93;;;5.07;;
10293;SDS011;5192;50.328;7.610;2023-10-19T14:06:04;5.87;;;4.90;;
10293;SDS011;5192;50.328;7.610;2023-10-19T14:08:30;5.63;;;5.07;;
10293;SDS011;5192;50.328;7.610;2023-10-19T14:11:03;6.40;;;5.13;;
10293;SDS011;5192;50.328;7.610;2023-10-19T14:13:30;5.97;;;5.37;;
10293;SDS011;5192;50.328;7.610;2023-10-19T14:16:04;7.60;;;5.03;;
10293;SDS011;5192;50.328;7.610;2023-10-19T14:18:31;5.70;;;4.90;;
10293;SDS011;5192;50.328;7.610;2023-10-19T14:21:00;7.57;;;4.63;;
10293;SDS011;5192;50.328;7.610;2023-10-19T14:23:41;5.23;;;4.73;;
10293;SDS011;5192;50.328;7.610;2023-10-19T14:26:09;7.00;;;4.97;;
10293;SDS011;5192;50.328;7.610;2023-10-19T14:28:38;5.50;;;5.07;;
10293;SDS011;5192;50.328;7.610;2023-10-19T14:31:07;6.97;;;5.13;;
10293;SDS011;5192;50.328;7.610;2023-10-19T14:33:34;4.97;;;4.43;;
10293;SDS011;5192;50.328;7.610;2023-10-19T14:36:01;5.97;;;5.20;;
10293;SDS011;5192;50.328;7.610;2023-10-19T14:38:30;6.00;;;5.33;;
10293;SDS011;5192;50.328;7.610;2023-10-19T14:40:58;5.77;;;5.27;;
10293;SDS011;5192;50.328;7.610;2023-10-19T14:43:26;5.70;;;4.83;;
10293;SDS011;5192;50.328;7.610;2023-10-19T14:45:55;5.53;;;4.77;;
10293;SDS011;5192;50.328;7.610;2023-10-19T14:48:24;5.57;;;4.77;;
10293;SDS011;5192;50.328;7.610;2023-10-19T14:50:57;6.10;;;5.10;;
10293;SDS011;5192;50.328;7.610;2023-10-19T14:53:28;6.37;;;4.87;;
10293;SDS011;5192;50.328;7.610;2023-10-19T14:56:00;5.83;;;5.20;;
10293;SDS011;5192;50.328;7.610;2023-10-19T14:58:28;6.77;;;5.67;;
10293;SDS011;5192;50.328;7.610;2023-10-19T15:00:58;5.60;;;5.10;;
10293;SDS011;5192;50.328;7.610;2023-10-19T15:03:25;6.40;;;5.90;;
10293;SDS011;5192;50.328;7.610;2023-10-19T15:05:53;6.33;;;5.33;;
10293;SDS011;5192;50.328;7.610;2023-10-19T15:08:21;6.60;;;5.43;;
10293;SDS011;5192;50.328;7.610;2023-10-19T15:10:49;7.80;;;5.43;;
10293;SDS011;5192;50.328;7.610;2023-10-19T15:13:20;5.40;;;4.90;;
10293;SDS011;5192;50.328;7.610;2023-10-19T15:15:47;6.60;;;5.07;;
10293;SDS011;5192;50.328;7.610;2023-10-19T15:18:15;4.83;;;4.40;;
10293;SDS011;5192;50.328;7.610;2023-10-19T15:20:41;6.55;;;4.80;;
10293;SDS011;5192;50.328;7.610;2023-10-19T15:23:08;7.00;;;4.50;;
10293;SDS011;5192;50.328;7.610;2023-10-19T15:25:35;6.03;;;4.73;;